sensor_id;sensor_type;location;lat;lon;timestamp;pressure;altitude;pressure_sealevel;temperature;humidity
63556;BME280;49700;48.072;7.800;2023-02-14T00:02:05;101417.22;;;2.35;78.11
63556;BME280;49700;48.072;7.800;2023-02-14T00:04:30;101417.22;;;2.35;77.77
63556;BME280;49700;48.072;7.800;2023-02-14T00:06:56;101417.22;;;2.34;78.14
63556;BME280;49700;48.072;7.800;2023-02-14T00:09:22;101414.63;;;2.34;78.25
63556;BME280;49700;48.072;7.800;2023-02-14T00:11:48;101420.69;;;2.36;77.99
63556;BME280;49700;48.072;7.800;2023-02-14T00:14:14;101415.47;;;2.37;78.11
63556;BME280;49700;48.072;7.800;2023-02-14T00:16:58;101423.28;;;2.36;77.79
63556;BME280;49700;48.072;7.800;2023-02-14T00:19:24;101423.28;;;2.33;77.73
63556;BME280;49700;48.072;7.800;2023-02-14T00:21:49;101416.34;;;2.32;77.91
63556;BME280;49700;48.072;7.800;2023-02-14T00:24:18;101410.31;;;2.25;77.64
63556;BME280;49700;48.072;7.800;2023-02-14T00:26:44;101417.22;;;2.17;77.87
63556;BME280;49700;48.072;7.800;2023-02-14T00:29:12;101412.91;;;2.13;77.97
63556;BME280;49700;48.072;7.800;2023-02-14T00:31:37;101408.59;;;2.12;78.17
63556;BME280;49700;48.072;7.800;2023-02-14T00:34:03;101408.59;;;2.12;77.99
63556;BME280;49700;48.072;7.800;2023-02-14T00:36:29;101401.69;;;2.09;77.71
63556;BME280;49700;48.072;7.800;2023-02-14T00:38:55;101398.22;;;2.07;77.97
63556;BME280;49700;48.072;7.800;2023-02-14T00:41:21;101395.63;;;2.10;78.29
63556;BME280;49700;48.072;7.800;2023-02-14T00:43:51;101401.69;;;2.11;78.07
63556;BME280;49700;48.072;7.800;2023-02-14T00:46:18;101401.66;;;2.05;77.72
63556;BME280;49700;48.072;7.800;2023-02-14T00:48:44;101396.50;;;2.00;77.88
63556;BME280;49700;48.072;7.800;2023-02-14T00:51:10;101390.44;;;1.96;77.75
63556;BME280;49700;48.072;7.800;2023-02-14T00:53:36;101386.13;;;1.91;77.84
63556;BME280;49700;48.072;7.800;2023-02-14T00:56:02;101388.69;;;1.86;77.90
63556;BME280;49700;48.072;7.800;2023-02-14T00:58:28;101387.84;;;1.86;77.98
63556;BME280;49700;48.072;7.800;2023-02-14T01:00:54;101390.44;;;1.83;78.07
63556;BME280;49700;48.072;7.800;2023-02-14T01:03:22;101404.25;;;1.77;77.71
63556;BME280;49700;48.072;7.800;2023-02-14T01:05:50;101399.06;;;1.72;78.15
63556;BME280;49700;48.072;7.800;2023-02-14T01:08:15;101393.03;;;1.70;77.96
63556;BME280;49700;48.072;7.800;2023-02-14T01:10:41;101398.19;;;1.67;77.94
63556;BME280;49700;48.072;7.800;2023-02-14T01:13:08;101398.19;;;1.60;77.99
63556;BME280;49700;48.072;7.800;2023-02-14T01:15:38;101391.28;;;1.57;78.08
63556;BME280;49700;48.072;7.800;2023-02-14T01:18:04;101397.28;;;1.56;77.88
63556;BME280;49700;48.072;7.800;2023-02-14T01:20:29;101399.88;;;1.56;77.85
63556;BME280;49700;48.072;7.800;2023-02-14T01:22:54;101404.19;;;1.52;78.24
63556;BME280;49700;48.072;7.800;2023-02-14T01:25:20;101398.16;;;1.47;77.96
63556;BME280;49700;48.072;7.800;2023-02-14T01:27:45;101402.44;;;1.45;77.77
63556;BME280;49700;48.072;7.800;2023-02-14T01:30:12;101394.69;;;1.42;78.01
63556;BME280;49700;48.072;7.800;2023-02-14T01:32:39;101406.75;;;1.42;77.92
63556;BME280;49700;48.072;7.800;2023-02-14T01:35:04;101399.84;;;1.39;78.02
63556;BME280;49700;48.072;7.800;2023-02-14T01:37:30;101396.38;;;1.37;78.24
63556;BME280;49700;48.072;7.800;2023-02-14T01:39:55;101391.19;;;1.34;77.96
63556;BME280;49700;48.072;7.800;2023-02-14T01:42:21;101395.53;;;1.33;78.25
63556;BME280;49700;48.072;7.800;2023-02-14T01:47:12;101395.53;;;1.33;77.97
63556;BME280;49700;48.072;7.800;2023-02-14T01:49:41;101392.91;;;1.32;77.89
63556;BME280;49700;48.072;7.800;2023-02-14T01:52:14;101392.94;;;1.30;77.92
63556;BME280;49700;48.072;7.800;2023-02-14T01:54:48;101401.56;;;1.31;78.19
63556;BME280;49700;48.072;7.800;2023-02-14T01:57:18;101392.06;;;1.30;77.93
63556;BME280;49700;48.072;7.800;2023-02-14T01:59:54;101388.59;;;1.29;78.11
63556;BME280;49700;48.072;7.800;2023-02-14T02:02:20;101392.06;;;1.28;78.04
63556;BME280;49700;48.072;7.800;2023-02-14T02:04:50;101398.09;;;1.30;78.02
63556;BME280;49700;48.072;7.800;2023-02-14T02:07:21;101392.06;;;1.31;78.13
63556;BME280;49700;48.072;7.800;2023-02-14T02:09:54;101392.91;;;1.32;78.20
63556;BME280;49700;48.072;7.800;2023-02-14T02:12:22;101392.91;;;1.32;77.92
63556;BME280;49700;48.072;7.800;2023-02-14T02:14:49;101382.56;;;1.32;78.02
63556;BME280;49700;48.072;7.800;2023-02-14T02:26:25;101368.72;;;1.21;78.13
63556;BME280;49700;48.072;7.800;2023-02-14T02:45:05;101355.75;;;1.13;77.89
63556;BME280;49700;48.072;7.800;2023-02-14T02:47:45;101359.19;;;1.07;77.72
63556;BME280;49700;48.072;7.800;2023-02-14T02:50:28;101359.19;;;1.03;77.78
63556;BME280;49700;48.072;7.800;2023-02-14T02:53:42;101357.47;;;1.00;78.19
63556;BME280;49700;48.072;7.800;2023-02-14T02:56:16;101356.56;;;1.00;77.84
63556;BME280;49700;48.072;7.800;2023-02-14T02:59:05;101347.94;;;0.99;77.92
63556;BME280;49700;48.072;7.800;2023-02-14T03:01:50;101363.47;;;0.93;77.48
63556;BME280;49700;48.072;7.800;2023-02-14T03:04:18;101360.84;;;0.85;77.65
63556;BME280;49700;48.072;7.800;2023-02-14T03:07:04;101362.53;;;0.83;78.12
63556;BME280;49700;48.072;7.800;2023-02-14T03:09:55;101362.59;;;0.86;78.09
63556;BME280;49700;48.072;7.800;2023-02-14T03:17:59;101361.69;;;0.80;77.43
63556;BME280;49700;48.072;7.800;2023-02-14T03:20:54;101359.94;;;0.76;77.82
63556;BME280;49700;48.072;7.800;2023-02-14T03:23:29;101366.81;;;0.75;78.01
63556;BME280;49700;48.072;7.800;2023-02-14T03:26:09;101362.53;;;0.76;77.99
63556;BME280;49700;48.072;7.800;2023-02-14T03:31:46;101359.94;;;0.74;77.85
63556;BME280;49700;48.072;7.800;2023-02-14T03:34:24;101358.22;;;0.73;77.58
63556;BME280;49700;48.072;7.800;2023-02-14T03:37:05;101359.06;;;0.71;77.74
63556;BME280;49700;48.072;7.800;2023-02-14T03:39:39;101353.00;;;0.69;77.78
63556;BME280;49700;48.072;7.800;2023-02-14T03:42:18;101351.28;;;0.69;77.92
63556;BME280;49700;48.072;7.800;2023-02-14T03:44:46;101360.78;;;0.72;77.93
63556;BME280;49700;48.072;7.800;2023-02-14T03:47:18;101357.31;;;0.70;77.48
63556;BME280;49700;48.072;7.800;2023-02-14T03:49:58;101353.00;;;0.69;77.92
63556;BME280;49700;48.072;7.800;2023-02-14T03:52:27;101364.22;;;0.68;77.57
63556;BME280;49700;48.072;7.800;2023-02-14T03:54:56;101368.47;;;0.61;77.60
63556;BME280;49700;48.072;7.800;2023-02-14T03:57:27;101365.03;;;0.57;78.03
63556;BME280;49700;48.072;7.800;2023-02-14T03:59:55;101356.41;;;0.58;78.00
63556;BME280;49700;48.072;7.800;2023-02-14T04:02:41;101368.47;;;0.58;77.81
63556;BME280;49700;48.072;7.800;2023-02-14T04:05:12;101368.44;;;0.59;77.74
63556;BME280;49700;48.072;7.800;2023-02-14T04:07:48;101368.44;;;0.55;77.70
63556;BME280;49700;48.072;7.800;2023-02-14T04:10:14;101369.28;;;0.46;77.47
63556;BME280;49700;48.072;7.800;2023-02-14T04:12:40;101378.69;;;0.36;77.45
63556;BME280;49700;48.072;7.800;2023-02-14T04:15:06;101374.28;;;0.26;77.39
63556;BME280;49700;48.072;7.800;2023-02-14T04:17:31;101373.38;;;0.16;77.53
63556;BME280;49700;48.072;7.800;2023-02-14T04:20:15;101379.34;;;0.09;77.71
63556;BME280;49700;48.072;7.800;2023-02-14T04:22:40;101382.72;;;0.02;77.64
63556;BME280;49700;48.072;7.800;2023-02-14T04:25:06;101377.56;;;0.01;77.95
63556;BME280;49700;48.072;7.800;2023-02-14T04:27:31;101374.13;;;0.03;78.30
63556;BME280;49700;48.072;7.800;2023-02-14T04:29:57;101367.25;;;0.05;78.27
63556;BME280;49700;48.072;7.800;2023-02-14T04:32:22;101364.66;;;0.05;78.19
63556;BME280;49700;48.072;7.800;2023-02-14T04:34:48;101369.81;;;0.05;78.18
63556;BME280;49700;48.072;7.800;2023-02-14T04:37:15;101373.31;;;0.09;78.35
63556;BME280;49700;48.072;7.800;2023-02-14T04:39:41;101375.94;;;0.15;78.25
63556;BME280;49700;48.072;7.800;2023-02-14T04:42:06;101375.97;;;0.19;77.89
63556;BME280;49700;48.072;7.800;2023-02-14T04:44:32;101379.41;;;0.21;77.98
63556;BME280;49700;48.072;7.800;2023-02-14T04:47:03;101380.31;;;0.24;78.08
63556;BME280;49700;48.072;7.800;2023-02-14T04:49:29;101370.81;;;0.24;77.95
63556;BME280;49700;48.072;7.800;2023-02-14T04:51:54;101369.13;;;0.26;78.01
63556;BME280;49700;48.072;7.800;2023-02-14T04:54:20;101379.47;;;0.25;77.56
63556;BME280;49700;48.072;7.800;2023-02-14T04:56:45;101379.44;;;0.20;77.77
63556;BME280;49700;48.072;7.800;2023-02-14T04:59:11;101375.94;;;0.15;77.60
63556;BME280;49700;48.072;7.800;2023-02-14T05:01:36;101375.88;;;0.10;77.49
63556;BME280;49700;48.072;7.800;2023-02-14T05:04:02;101372.44;;;0.10;77.85
63556;BME280;49700;48.072;7.800;2023-02-14T05:06:27;101371.59;;;0.12;77.95
63556;BME280;49700;48.072;7.800;2023-02-14T05:08:54;101365.56;;;0.13;78.12
63556;BME280;49700;48.072;7.800;2023-02-14T05:11:20;101362.16;;;0.16;77.86
63556;BME280;49700;48.072;7.800;2023-02-14T05:13:46;101365.56;;;0.13;77.54
63556;BME280;49700;48.072;7.800;2023-02-14T05:16:11;101364.72;;;0.11;77.75
63556;BME280;49700;48.072;7.800;2023-02-14T05:18:37;101366.41;;;0.06;77.47
63556;BME280;49700;48.072;7.800;2023-02-14T05:21:03;101363.78;;;0.02;77.80
63556;BME280;49700;48.072;7.800;2023-02-14T05:23:29;101365.44;;;-0.04;77.62
63556;BME280;49700;48.072;7.800;2023-02-14T05:25:54;101367.13;;;-0.09;77.72
63556;BME280;49700;48.072;7.800;2023-02-14T05:28:20;101363.72;;;-0.08;78.23
63556;BME280;49700;48.072;7.800;2023-02-14T05:30:46;101370.63;;;-0.05;77.94
63556;BME280;49700;48.072;7.800;2023-02-14T05:33:11;101368.06;;;-0.02;77.94
63556;BME280;49700;48.072;7.800;2023-02-14T05:35:37;101372.41;;;0.04;78.22
63556;BME280;49700;48.072;7.800;2023-02-14T05:38:03;101370.72;;;0.10;78.29
63556;BME280;49700;48.072;7.800;2023-02-14T05:40:28;101375.06;;;0.14;78.34
63556;BME280;49700;48.072;7.800;2023-02-14T05:42:54;101372.50;;;0.14;77.85
63556;BME280;49700;48.072;7.800;2023-02-14T05:45:21;101374.19;;;0.12;78.11
63556;BME280;49700;48.072;7.800;2023-02-14T05:47:47;101384.56;;;0.14;78.10
63556;BME280;49700;48.072;7.800;2023-02-14T05:50:13;101372.47;;;0.13;78.03
63556;BME280;49700;48.072;7.800;2023-02-14T05:52:39;101381.97;;;0.14;77.94
63556;BME280;49700;48.072;7.800;2023-02-14T05:55:04;101383.66;;;0.13;77.74
63556;BME280;49700;48.072;7.800;2023-02-14T05:57:30;101384.50;;;0.11;77.73
63556;BME280;49700;48.072;7.800;2023-02-14T05:59:56;101376.72;;;0.05;77.50
63556;BME280;49700;48.072;7.800;2023-02-14T06:02:21;101385.31;;;0.01;77.68
63556;BME280;49700;48.072;7.800;2023-02-14T06:04:47;101392.19;;;-0.02;77.82
63556;BME280;49700;48.072;7.800;2023-02-14T06:07:12;101396.47;;;-0.02;77.99
63556;BME280;49700;48.072;7.800;2023-02-14T06:09:38;101393.91;;;-0.02;77.60
63556;BME280;49700;48.072;7.800;2023-02-14T06:12:03;101399.06;;;-0.02;77.91
63556;BME280;49700;48.072;7.800;2023-02-14T06:14:29;101397.31;;;-0.03;77.77
63556;BME280;49700;48.072;7.800;2023-02-14T06:16:54;101395.56;;;-0.07;77.40
63556;BME280;49700;48.072;7.800;2023-02-14T06:19:19;101404.16;;;-0.10;77.71
63556;BME280;49700;48.072;7.800;2023-02-14T06:21:45;101412.75;;;-0.12;77.83
63556;BME280;49700;48.072;7.800;2023-02-14T06:24:10;101410.16;;;-0.12;77.85
63556;BME280;49700;48.072;7.800;2023-02-14T06:26:36;101405.84;;;-0.13;77.68
63556;BME280;49700;48.072;7.800;2023-02-14T06:29:02;101405.00;;;-0.12;77.82
63556;BME280;49700;48.072;7.800;2023-02-14T06:31:28;101406.72;;;-0.13;77.77
63556;BME280;49700;48.072;7.800;2023-02-14T06:33:54;101405.88;;;-0.10;77.91
63556;BME280;49700;48.072;7.800;2023-02-14T06:36:20;101410.22;;;-0.08;77.96
63556;BME280;49700;48.072;7.800;2023-02-14T06:38:46;101414.50;;;-0.10;77.92
63556;BME280;49700;48.072;7.800;2023-02-14T06:41:12;101414.50;;;-0.10;77.95
63556;BME280;49700;48.072;7.800;2023-02-14T06:43:39;101426.56;;;-0.07;77.83
63556;BME280;49700;48.072;7.800;2023-02-14T06:46:05;101417.00;;;-0.17;77.42
63556;BME280;49700;48.072;7.800;2023-02-14T06:48:31;101428.09;;;-0.25;77.19
63556;BME280;49700;48.072;7.800;2023-02-14T06:50:56;101424.63;;;-0.31;77.33
63556;BME280;49700;48.072;7.800;2023-02-14T06:53:22;101422.03;;;-0.31;77.82
63556;BME280;49700;48.072;7.800;2023-02-14T06:55:47;101419.44;;;-0.31;78.09
63556;BME280;49700;48.072;7.800;2023-02-14T06:58:13;101429.84;;;-0.27;78.07
63556;BME280;49700;48.072;7.800;2023-02-14T07:00:38;101426.38;;;-0.26;77.83
63556;BME280;49700;48.072;7.800;2023-02-14T07:03:06;101426.34;;;-0.32;77.50
63556;BME280;49700;48.072;7.800;2023-02-14T07:05:33;101421.19;;;-0.32;77.68
63556;BME280;49700;48.072;7.800;2023-02-14T07:07:59;101431.50;;;-0.32;78.13
63556;BME280;49700;48.072;7.800;2023-02-14T07:10:24;101422.06;;;-0.30;78.39
63556;BME280;49700;48.072;7.800;2023-02-14T07:12:50;101425.50;;;-0.29;78.08
63556;BME280;49700;48.072;7.800;2023-02-14T07:15:15;101414.34;;;-0.25;78.27
63556;BME280;49700;48.072;7.800;2023-02-14T07:17:41;101426.41;;;-0.23;78.30
63556;BME280;49700;48.072;7.800;2023-02-14T07:20:07;101423.88;;;-0.16;78.36
63556;BME280;49700;48.072;7.800;2023-02-14T07:22:34;101418.78;;;-0.10;78.12
63556;BME280;49700;48.072;7.800;2023-02-14T07:24:59;101417.94;;;-0.09;77.86
63556;BME280;49700;48.072;7.800;2023-02-14T07:27:25;101427.41;;;-0.10;77.71
63556;BME280;49700;48.072;7.800;2023-02-14T07:29:50;101418.78;;;-0.12;77.72
63556;BME280;49700;48.072;7.800;2023-02-14T07:32:16;101424.78;;;-0.14;77.28
63556;BME280;49700;48.072;7.800;2023-02-14T07:34:41;101424.78;;;-0.16;77.80
63556;BME280;49700;48.072;7.800;2023-02-14T07:37:06;101426.44;;;-0.19;77.67
63556;BME280;49700;48.072;7.800;2023-02-14T07:39:32;101428.16;;;-0.21;77.97
63556;BME280;49700;48.072;7.800;2023-02-14T07:42:01;101423.84;;;-0.23;77.65
63556;BME280;49700;48.072;7.800;2023-02-14T07:44:26;101423.00;;;-0.21;77.98
63556;BME280;49700;48.072;7.800;2023-02-14T07:46:51;101417.84;;;-0.18;77.92
63556;BME280;49700;48.072;7.800;2023-02-14T07:49:17;101417.88;;;-0.15;77.74
63556;BME280;49700;48.072;7.800;2023-02-14T07:51:42;101420.47;;;-0.14;77.81
63556;BME280;49700;48.072;7.800;2023-02-14T07:54:08;101417.88;;;-0.14;77.68
63556;BME280;49700;48.072;7.800;2023-02-14T07:56:33;101428.22;;;-0.14;77.89
63556;BME280;49700;48.072;7.800;2023-02-14T07:58:59;101423.97;;;-0.10;77.86
63556;BME280;49700;48.072;7.800;2023-02-14T08:01:24;101429.09;;;-0.12;77.48
63556;BME280;49700;48.072;7.800;2023-02-14T08:03:50;101426.53;;;-0.13;77.58
63556;BME280;49700;48.072;7.800;2023-02-14T08:06:20;101429.97;;;-0.11;77.93
63556;BME280;49700;48.072;7.800;2023-02-14T08:08:46;101438.63;;;-0.08;77.87
63556;BME280;49700;48.072;7.800;2023-02-14T08:11:12;101437.78;;;-0.05;77.44
63556;BME280;49700;48.072;7.800;2023-02-14T08:13:57;101432.66;;;-0.02;77.63
63556;BME280;49700;48.072;7.800;2023-02-14T08:16:23;101435.28;;;0.04;77.58
63556;BME280;49700;48.072;7.800;2023-02-14T08:18:48;101429.28;;;0.10;77.49
63556;BME280;49700;48.072;7.800;2023-02-14T08:21:14;101430.19;;;0.15;77.37
63556;BME280;49700;48.072;7.800;2023-02-14T08:23:41;101424.16;;;0.16;77.04
63556;BME280;49700;48.072;7.800;2023-02-14T08:26:07;101423.25;;;0.09;77.01
63556;BME280;49700;48.072;7.800;2023-02-14T08:28:32;101418.06;;;0.05;77.18
63556;BME280;49700;48.072;7.800;2023-02-14T08:31:01;101430.94;;;0.02;77.14
63556;BME280;49700;48.072;7.800;2023-02-14T08:33:27;101424.91;;;0.01;77.65
63556;BME280;49700;48.072;7.800;2023-02-14T08:35:52;101414.63;;;0.06;77.54
63556;BME280;49700;48.072;7.800;2023-02-14T08:38:18;101412.06;;;0.10;77.72
63556;BME280;49700;48.072;7.800;2023-02-14T08:40:43;101412.97;;;0.15;77.31
63556;BME280;49700;48.072;7.800;2023-02-14T08:43:09;101414.75;;;0.22;77.38
63556;BME280;49700;48.072;7.800;2023-02-14T08:45:35;101411.34;;;0.28;77.15
63556;BME280;49700;48.072;7.800;2023-02-14T08:48:05;101412.25;;;0.30;77.26
63556;BME280;49700;48.072;7.800;2023-02-14T08:50:31;101413.97;;;0.33;77.35
63556;BME280;49700;48.072;7.800;2023-02-14T08:52:56;101409.72;;;0.38;76.98
63556;BME280;49700;48.072;7.800;2023-02-14T08:55:22;101409.72;;;0.42;77.14
63556;BME280;49700;48.072;7.800;2023-02-14T08:57:48;101409.78;;;0.47;76.82
63556;BME280;49700;48.072;7.800;2023-02-14T09:00:13;101408.09;;;0.52;76.88
63556;BME280;49700;48.072;7.800;2023-02-14T09:02:39;101410.72;;;0.61;76.96
63556;BME280;49700;48.072;7.800;2023-02-14T09:05:05;101412.50;;;0.69;76.62
63556;BME280;49700;48.072;7.800;2023-02-14T09:07:32;101410.78;;;0.74;76.42
63556;BME280;49700;48.072;7.800;2023-02-14T09:09:58;101416.84;;;0.76;76.57
63556;BME280;49700;48.072;7.800;2023-02-14T09:12:23;101408.19;;;0.75;76.42
63556;BME280;49700;48.072;7.800;2023-02-14T09:14:48;101417.69;;;0.75;76.22
63556;BME280;49700;48.072;7.800;2023-02-14T09:17:14;101403.91;;;0.74;76.05
63556;BME280;49700;48.072;7.800;2023-02-14T09:19:40;101403.91;;;0.74;76.44
63556;BME280;49700;48.072;7.800;2023-02-14T09:22:07;101405.66;;;0.80;76.52
63556;BME280;49700;48.072;7.800;2023-02-14T09:24:35;101404.81;;;0.84;76.47
63556;BME280;49700;48.072;7.800;2023-02-14T09:27:01;101403.09;;;0.89;76.08
63556;BME280;49700;48.072;7.800;2023-02-14T09:29:28;101404.00;;;0.90;75.95
63556;BME280;49700;48.072;7.800;2023-02-14T09:31:55;101405.72;;;0.91;76.04
63556;BME280;49700;48.072;7.800;2023-02-14T09:34:21;101408.31;;;0.95;76.31
63556;BME280;49700;48.072;7.800;2023-02-14T09:37:05;101410.03;;;0.96;76.02
63556;BME280;49700;48.072;7.800;2023-02-14T09:39:49;101410.03;;;0.96;76.18
63556;BME280;49700;48.072;7.800;2023-02-14T09:42:34;101404.91;;;1.01;75.98
63556;BME280;49700;48.072;7.800;2023-02-14T09:45:11;101404.88;;;0.99;76.14
63556;BME280;49700;48.072;7.800;2023-02-14T09:47:43;101395.38;;;0.95;75.90
63556;BME280;49700;48.072;7.800;2023-02-14T09:52:51;101394.53;;;1.02;76.27
63556;BME280;49700;48.072;7.800;2023-02-14T09:55:18;101402.31;;;1.07;76.08
63556;BME280;49700;48.072;7.800;2023-02-14T10:00:44;101403.19;;;1.10;76.19
63556;BME280;49700;48.072;7.800;2023-02-14T10:03:32;101398.91;;;1.11;75.68
63556;BME280;49700;48.072;7.800;2023-02-14T10:09:47;101385.13;;;1.20;76.20
63556;BME280;49700;48.072;7.800;2023-02-14T10:12:30;101386.00;;;1.26;76.08
63556;BME280;49700;48.072;7.800;2023-02-14T10:15:01;101384.28;;;1.35;76.04
63556;BME280;49700;48.072;7.800;2023-02-14T10:17:48;101386.91;;;1.45;75.92
63556;BME280;49700;48.072;7.800;2023-02-14T10:20:21;101387.78;;;1.53;75.49
63556;BME280;49700;48.072;7.800;2023-02-14T10:26:20;101372.28;;;1.69;75.27
63556;BME280;49700;48.072;7.800;2023-02-14T10:28:49;101374.03;;;1.73;74.93
63556;BME280;49700;48.072;7.800;2023-02-14T10:31:25;101370.56;;;1.77;75.15
63556;BME280;49700;48.072;7.800;2023-02-14T10:34:19;101369.69;;;1.75;75.42
63556;BME280;49700;48.072;7.800;2023-02-14T10:40:21;101358.47;;;1.94;75.46
63556;BME280;49700;48.072;7.800;2023-02-14T10:46:02;101366.25;;;2.07;74.82
63556;BME280;49700;48.072;7.800;2023-02-14T10:51:18;101355.03;;;1.95;75.16
63556;BME280;49700;48.072;7.800;2023-02-14T10:54:14;101347.25;;;1.97;75.62
63556;BME280;49700;48.072;7.800;2023-02-14T10:57:02;101342.06;;;2.03;75.21
63556;BME280;49700;48.072;7.800;2023-02-14T10:59:43;101339.47;;;2.08;74.93
63556;BME280;49700;48.072;7.800;2023-02-14T11:02:15;101343.78;;;2.12;75.21
63556;BME280;49700;48.072;7.800;2023-02-14T11:04:41;101337.72;;;2.16;75.38
63556;BME280;49700;48.072;7.800;2023-02-14T11:07:15;101323.03;;;2.22;75.48
63556;BME280;49700;48.072;7.800;2023-02-14T11:09:41;101330.78;;;2.32;74.98
63556;BME280;49700;48.072;7.800;2023-02-14T11:12:07;101327.31;;;2.37;74.61
63556;BME280;49700;48.072;7.800;2023-02-14T11:14:35;101325.56;;;2.42;74.79
63556;BME280;49700;48.072;7.800;2023-02-14T11:17:28;101325.56;;;2.52;74.45
63556;BME280;49700;48.072;7.800;2023-02-14T11:20:03;101319.50;;;2.57;74.50
63556;BME280;49700;48.072;7.800;2023-02-14T11:22:34;101316.00;;;2.61;74.87
63556;BME280;49700;48.072;7.800;2023-02-14T11:27:44;101307.31;;;2.75;74.46
63556;BME280;49700;48.072;7.800;2023-02-14T11:30:21;101303.78;;;2.83;74.42
63556;BME280;49700;48.072;7.800;2023-02-14T11:32:50;101302.94;;;2.87;74.75
63556;BME280;49700;48.072;7.800;2023-02-14T11:35:24;101294.22;;;2.98;74.51
63556;BME280;49700;48.072;7.800;2023-02-14T11:37:55;101292.47;;;3.06;74.36
63556;BME280;49700;48.072;7.800;2023-02-14T11:40:27;101293.28;;;3.14;74.43
63556;BME280;49700;48.072;7.800;2023-02-14T11:42:54;101284.56;;;3.20;74.28
63556;BME280;49700;48.072;7.800;2023-02-14T11:48:21;101282.81;;;3.25;73.65
63556;BME280;49700;48.072;7.800;2023-02-14T11:50:57;101262.06;;;3.20;74.22
63556;BME280;49700;48.072;7.800;2023-02-14T11:53:27;101266.44;;;3.14;74.67
63556;BME280;49700;48.072;7.800;2023-02-14T11:55:55;101263.84;;;3.14;74.68
63556;BME280;49700;48.072;7.800;2023-02-14T11:58:35;101266.38;;;3.21;74.99
63556;BME280;49700;48.072;7.800;2023-02-14T12:01:02;101269.81;;;3.26;74.94
63556;BME280;49700;48.072;7.800;2023-02-14T12:03:47;101260.22;;;3.35;74.80
63556;BME280;49700;48.072;7.800;2023-02-14T12:06:25;101255.84;;;3.46;74.77
63556;BME280;49700;48.072;7.800;2023-02-14T12:09:10;101250.59;;;3.47;74.36
63556;BME280;49700;48.072;7.800;2023-02-14T12:11:36;101250.59;;;3.52;74.66
63556;BME280;49700;48.072;7.800;2023-02-14T12:14:02;101245.34;;;3.53;74.50
63556;BME280;49700;48.072;7.800;2023-02-14T12:16:42;101235.78;;;3.59;74.46
63556;BME280;49700;48.072;7.800;2023-02-14T12:19:16;101234.00;;;3.64;74.47
63556;BME280;49700;48.072;7.800;2023-02-14T12:21:56;101234.91;;;3.61;74.60
63556;BME280;49700;48.072;7.800;2023-02-14T12:24:30;101226.25;;;3.59;74.73
63556;BME280;49700;48.072;7.800;2023-02-14T12:29:40;101221.06;;;3.62;74.85
63556;BME280;49700;48.072;7.800;2023-02-14T12:32:21;101215.81;;;3.65;74.91
63556;BME280;49700;48.072;7.800;2023-02-14T12:34:48;101220.13;;;3.68;74.93
63556;BME280;49700;48.072;7.800;2023-02-14T12:40:49;101217.47;;;3.75;74.72
63556;BME280;49700;48.072;7.800;2023-02-14T12:43:31;101214.84;;;3.77;74.77
63556;BME280;49700;48.072;7.800;2023-02-14T12:48:45;101196.66;;;3.75;74.64
63556;BME280;49700;48.072;7.800;2023-02-14T12:56:45;101187.81;;;3.93;74.68
63556;BME280;49700;48.072;7.800;2023-02-14T12:59:28;101182.53;;;3.99;74.58
63556;BME280;49700;48.072;7.800;2023-02-14T13:05:21;101179.03;;;4.04;74.58
63556;BME280;49700;48.072;7.800;2023-02-14T13:10:48;101178.06;;;4.12;74.54
63556;BME280;49700;48.072;7.800;2023-02-14T13:13:37;101174.56;;;4.16;74.39
63556;BME280;49700;48.072;7.800;2023-02-14T13:18:58;101164.91;;;4.25;74.42
63556;BME280;49700;48.072;7.800;2023-02-14T13:21:27;101165.75;;;4.27;74.17
63556;BME280;49700;48.072;7.800;2023-02-14T13:23:57;101163.16;;;4.27;74.04
63556;BME280;49700;48.072;7.800;2023-02-14T13:26:34;101160.50;;;4.30;74.27
63556;BME280;49700;48.072;7.800;2023-02-14T13:29:04;101161.34;;;4.32;74.30
63556;BME280;49700;48.072;7.800;2023-02-14T13:31:31;101160.47;;;4.33;74.17
63556;BME280;49700;48.072;7.800;2023-02-14T13:34:01;101149.16;;;4.34;74.31
63556;BME280;49700;48.072;7.800;2023-02-14T13:36:28;101151.78;;;4.35;74.35
63556;BME280;49700;48.072;7.800;2023-02-14T13:38:59;101148.31;;;4.35;74.40
63556;BME280;49700;48.072;7.800;2023-02-14T13:41:26;101146.59;;;4.32;74.54
63556;BME280;49700;48.072;7.800;2023-02-14T13:44:03;101146.56;;;4.34;74.31
63556;BME280;49700;48.072;7.800;2023-02-14T13:51:46;101137.06;;;4.33;74.34
63556;BME280;49700;48.072;7.800;2023-02-14T13:54:31;101138.81;;;4.32;74.38
63556;BME280;49700;48.072;7.800;2023-02-14T13:56:59;101133.56;;;4.34;74.29
63556;BME280;49700;48.072;7.800;2023-02-14T13:59:30;101124.84;;;4.36;74.44
63556;BME280;49700;48.072;7.800;2023-02-14T14:02:29;101130.97;;;4.34;74.45
63556;BME280;49700;48.072;7.800;2023-02-14T14:04:55;101124.91;;;4.35;74.55
63556;BME280;49700;48.072;7.800;2023-02-14T14:07:23;101122.25;;;4.38;74.75
63556;BME280;49700;48.072;7.800;2023-02-14T14:09:53;101128.22;;;4.46;74.86
63556;BME280;49700;48.072;7.800;2023-02-14T14:15:11;101117.53;;;4.64;74.65
63556;BME280;49700;48.072;7.800;2023-02-14T14:17:38;101115.69;;;4.73;74.35
63556;BME280;49700;48.072;7.800;2023-02-14T14:22:56;101115.34;;;4.94;74.08
63556;BME280;49700;48.072;7.800;2023-02-14T14:25:35;101120.44;;;5.00;73.87
63556;BME280;49700;48.072;7.800;2023-02-14T14:28:25;101121.31;;;4.99;73.59
63556;BME280;49700;48.072;7.800;2023-02-14T14:30:49;101111.00;;;4.93;74.10
63556;BME280;49700;48.072;7.800;2023-02-14T14:33:15;101123.22;;;4.90;74.25
63556;BME280;49700;48.072;7.800;2023-02-14T14:35:55;101117.09;;;4.92;74.55
63556;BME280;49700;48.072;7.800;2023-02-14T14:38:21;101114.50;;;4.91;74.59
63556;BME280;49700;48.072;7.800;2023-02-14T14:40:48;101121.50;;;4.87;74.42
63556;BME280;49700;48.072;7.800;2023-02-14T14:43:22;101112.97;;;4.79;74.54
63556;BME280;49700;48.072;7.800;2023-02-14T14:45:49;101112.28;;;4.68;74.27
63556;BME280;49700;48.072;7.800;2023-02-14T14:48:25;101108.19;;;4.50;74.50
63556;BME280;49700;48.072;7.800;2023-02-14T14:50:51;101106.66;;;4.38;74.74